sensor_id;sensor_type;location;lat;lon;timestamp;temperature;humidity
9772;DHT22;4925;52.588;13.370;2023-02-28T00:00:26;4.30;58.20
9772;DHT22;4925;52.588;13.370;2023-02-28T00:02:52;4.20;62.10
9772;DHT22;4925;52.588;13.370;2023-02-28T00:05:20;4.20;54.60
9772;DHT22;4925;52.588;13.370;2023-02-28T00:07:46;4.20;56.80
9772;DHT22;4925;52.588;13.370;2023-02-28T00:10:14;4.10;60.50
9772;DHT22;4925;52.588;13.370;2023-02-28T00:12:40;4.10;61.20
9772;DHT22;4925;52.588;13.370;2023-02-28T00:15:08;4.10;58.10
9772;DHT22;4925;52.588;13.370;2023-02-28T00:17:34;4.10;61.40
9772;DHT22;4925;52.588;13.370;2023-02-28T00:20:00;4.10;63.90
9772;DHT22;4925;52.588;13.370;2023-02-28T00:22:39;4.00;61.30
9772;DHT22;4925;52.588;13.370;2023-02-28T00:25:05;4.00;62.50
9772;DHT22;4925;52.588;13.370;2023-02-28T00:27:33;4.00;58.80
9772;DHT22;4925;52.588;13.370;2023-02-28T00:29:58;4.00;59.80
9772;DHT22;4925;52.588;13.370;2023-02-28T00:32:25;3.90;58.70
9772;DHT22;4925;52.588;13.370;2023-02-28T00:34:50;3.80;58.90
9772;DHT22;4925;52.588;13.370;2023-02-28T00:37:16;3.80;59.10
9772;DHT22;4925;52.588;13.370;2023-02-28T00:39:42;3.80;62.50
9772;DHT22;4925;52.588;13.370;2023-02-28T00:42:08;3.70;64.20
9772;DHT22;4925;52.588;13.370;2023-02-28T00:44:33;3.70;59.90
9772;DHT22;4925;52.588;13.370;2023-02-28T00:47:00;3.60;64.10
9772;DHT22;4925;52.588;13.370;2023-02-28T00:49:26;3.60;66.40
9772;DHT22;4925;52.588;13.370;2023-02-28T00:51:54;3.60;62.70
9772;DHT22;4925;52.588;13.370;2023-02-28T00:54:21;3.50;1.00
9772;DHT22;4925;52.588;13.370;2023-02-28T00:56:47;3.50;1.00
9772;DHT22;4925;52.588;13.370;2023-02-28T00:59:14;3.50;1.00
9772;DHT22;4925;52.588;13.370;2023-02-28T01:01:40;3.50;1.00
9772;DHT22;4925;52.588;13.370;2023-02-28T01:04:06;3.50;1.00
9772;DHT22;4925;52.588;13.370;2023-02-28T01:06:31;3.50;1.00
9772;DHT22;4925;52.588;13.370;2023-02-28T01:08:57;3.60;1.00
9772;DHT22;4925;52.588;13.370;2023-02-28T01:11:23;3.40;1.00
9772;DHT22;4925;52.588;13.370;2023-02-28T01:13:49;3.50;1.00
9772;DHT22;4925;52.588;13.370;2023-02-28T01:16:15;3.40;1.00
9772;DHT22;4925;52.588;13.370;2023-02-28T01:18:41;3.40;1.00
9772;DHT22;4925;52.588;13.370;2023-02-28T01:21:09;3.40;1.00
9772;DHT22;4925;52.588;13.370;2023-02-28T01:23:35;3.40;1.00
9772;DHT22;4925;52.588;13.370;2023-02-28T01:26:20;3.40;1.00
9772;DHT22;4925;52.588;13.370;2023-02-28T01:28:46;3.40;1.00
9772;DHT22;4925;52.588;13.370;2023-02-28T01:31:12;3.40;1.00
9772;DHT22;4925;52.588;13.370;2023-02-28T01:33:38;3.40;1.00
9772;DHT22;4925;52.588;13.370;2023-02-28T01:36:07;3.40;1.00
9772;DHT22;4925;52.588;13.370;2023-02-28T01:38:34;3.50;1.00
9772;DHT22;4925;52.588;13.370;2023-02-28T01:41:00;3.40;1.00
9772;DHT22;4925;52.588;13.370;2023-02-28T01:43:28;3.40;1.00
9772;DHT22;4925;52.588;13.370;2023-02-28T01:45:56;3.40;1.00
9772;DHT22;4925;52.588;13.370;2023-02-28T01:48:27;3.40;1.00
9772;DHT22;4925;52.588;13.370;2023-02-28T01:50:57;3.40;1.00
9772;DHT22;4925;52.588;13.370;2023-02-28T01:53:31;3.30;1.00
9772;DHT22;4925;52.588;13.370;2023-02-28T01:55:58;3.20;1.00
9772;DHT22;4925;52.588;13.370;2023-02-28T01:58:24;3.20;1.00
9772;DHT22;4925;52.588;13.370;2023-02-28T02:00:50;3.10;1.00
9772;DHT22;4925;52.588;13.370;2023-02-28T02:03:17;3.10;1.00
9772;DHT22;4925;52.588;13.370;2023-02-28T02:05:46;3.10;1.00
9772;DHT22;4925;52.588;13.370;2023-02-28T02:08:24;3.10;1.00
9772;DHT22;4925;52.588;13.370;2023-02-28T02:11:01;3.10;1.00
9772;DHT22;4925;52.588;13.370;2023-02-28T02:21:54;3.00;1.00
9772;DHT22;4925;52.588;13.370;2023-02-28T02:43:25;2.80;1.00
9772;DHT22;4925;52.588;13.370;2023-02-28T02:46:04;2.80;1.00
9772;DHT22;4925;52.588;13.370;2023-02-28T02:48:33;2.80;1.00
9772;DHT22;4925;52.588;13.370;2023-02-28T02:51:01;2.80;1.00
9772;DHT22;4925;52.588;13.370;2023-02-28T02:53:34;2.70;1.00
9772;DHT22;4925;52.588;13.370;2023-02-28T02:56:02;2.70;1.00
9772;DHT22;4925;52.588;13.370;2023-02-28T02:58:33;2.70;1.00
9772;DHT22;4925;52.588;13.370;2023-02-28T03:01:02;2.60;1.00
9772;DHT22;4925;52.588;13.370;2023-02-28T03:03:29;2.60;1.00
9772;DHT22;4925;52.588;13.370;2023-02-28T03:05:58;2.50;1.00
9772;DHT22;4925;52.588;13.370;2023-02-28T03:08:25;2.50;3.90
9772;DHT22;4925;52.588;13.370;2023-02-28T03:10:55;2.40;1.20
9772;DHT22;4925;52.588;13.370;2023-02-28T03:13:46;2.50;2.60
9772;DHT22;4925;52.588;13.370;2023-02-28T03:16:22;2.30;1.50
9772;DHT22;4925;52.588;13.370;2023-02-28T03:24:45;2.20;7.00
9772;DHT22;4925;52.588;13.370;2023-02-28T03:27:27;2.20;5.00
9772;DHT22;4925;52.588;13.370;2023-02-28T03:30:09;2.20;8.40
9772;DHT22;4925;52.588;13.370;2023-02-28T03:32:40;2.10;9.10
9772;DHT22;4925;52.588;13.370;2023-02-28T03:35:14;2.10;9.20
9772;DHT22;4925;52.588;13.370;2023-02-28T03:37:49;2.10;11.70
9772;DHT22;4925;52.588;13.370;2023-02-28T03:40:20;2.10;11.90
9772;DHT22;4925;52.588;13.370;2023-02-28T03:42:49;2.10;8.90
9772;DHT22;4925;52.588;13.370;2023-02-28T03:45:21;2.00;11.50
9772;DHT22;4925;52.588;13.370;2023-02-28T03:47:54;2.00;15.20
9772;DHT22;4925;52.588;13.370;2023-02-28T03:50:35;2.00;15.60
9772;DHT22;4925;52.588;13.370;2023-02-28T03:53:14;1.90;13.90
9772;DHT22;4925;52.588;13.370;2023-02-28T03:55:45;1.90;12.50
9772;DHT22;4925;52.588;13.370;2023-02-28T04:01:35;1.80;16.80
9772;DHT22;4925;52.588;13.370;2023-02-28T04:04:02;1.90;14.10
9772;DHT22;4925;52.588;13.370;2023-02-28T04:06:32;1.80;15.20
9772;DHT22;4925;52.588;13.370;2023-02-28T04:08:58;1.80;16.90
9772;DHT22;4925;52.588;13.370;2023-02-28T04:11:34;1.80;15.80
9772;DHT22;4925;52.588;13.370;2023-02-28T04:14:01;1.80;16.90
9772;DHT22;4925;52.588;13.370;2023-02-28T04:16:28;1.80;15.20
9772;DHT22;4925;52.588;13.370;2023-02-28T04:18:54;1.90;16.70
9772;DHT22;4925;52.588;13.370;2023-02-28T04:21:36;1.70;17.10
9772;DHT22;4925;52.588;13.370;2023-02-28T04:24:02;1.70;18.20
9772;DHT22;4925;52.588;13.370;2023-02-28T04:26:32;1.70;19.60
9772;DHT22;4925;52.588;13.370;2023-02-28T04:28:58;1.60;24.50
9772;DHT22;4925;52.588;13.370;2023-02-28T04:31:24;1.60;23.40
9772;DHT22;4925;52.588;13.370;2023-02-28T04:33:49;1.60;27.20
9772;DHT22;4925;52.588;13.370;2023-02-28T04:36:15;1.50;22.70
9772;DHT22;4925;52.588;13.370;2023-02-28T04:38:43;1.50;25.70
9772;DHT22;4925;52.588;13.370;2023-02-28T04:41:09;1.50;24.10
9772;DHT22;4925;52.588;13.370;2023-02-28T04:43:35;1.50;21.80
9772;DHT22;4925;52.588;13.370;2023-02-28T04:46:03;1.40;24.30
9772;DHT22;4925;52.588;13.370;2023-02-28T04:48:30;1.50;24.20
9772;DHT22;4925;52.588;13.370;2023-02-28T04:51:01;1.50;1.00
9772;DHT22;4925;52.588;13.370;2023-02-28T04:53:28;1.50;1.00
9772;DHT22;4925;52.588;13.370;2023-02-28T04:55:54;1.50;1.00
9772;DHT22;4925;52.588;13.370;2023-02-28T04:58:20;1.40;1.00
9772;DHT22;4925;52.588;13.370;2023-02-28T05:00:51;1.40;1.00
9772;DHT22;4925;52.588;13.370;2023-02-28T05:03:17;1.40;1.00
9772;DHT22;4925;52.588;13.370;2023-02-28T05:05:43;1.40;1.00
9772;DHT22;4925;52.588;13.370;2023-02-28T05:08:09;1.40;1.00
9772;DHT22;4925;52.588;13.370;2023-02-28T05:10:35;1.40;1.00
9772;DHT22;4925;52.588;13.370;2023-02-28T05:13:01;1.30;1.00
9772;DHT22;4925;52.588;13.370;2023-02-28T05:15:27;1.30;1.00
9772;DHT22;4925;52.588;13.370;2023-02-28T05:17:52;1.30;1.00
9772;DHT22;4925;52.588;13.370;2023-02-28T05:20:18;1.30;1.00
9772;DHT22;4925;52.588;13.370;2023-02-28T05:22:44;1.20;1.00
9772;DHT22;4925;52.588;13.370;2023-02-28T05:25:14;1.30;1.00
9772;DHT22;4925;52.588;13.370;2023-02-28T05:27:41;1.20;1.00
9772;DHT22;4925;52.588;13.370;2023-02-28T05:30:07;1.20;1.00
9772;DHT22;4925;52.588;13.370;2023-02-28T05:32:36;1.20;1.00
9772;DHT22;4925;52.588;13.370;2023-02-28T05:35:03;1.20;1.00
9772;DHT22;4925;52.588;13.370;2023-02-28T05:37:28;1.20;1.00
9772;DHT22;4925;52.588;13.370;2023-02-28T05:39:54;1.20;1.00
9772;DHT22;4925;52.588;13.370;2023-02-28T05:42:20;1.10;1.00
9772;DHT22;4925;52.588;13.370;2023-02-28T05:44:46;1.10;1.00
9772;DHT22;4925;52.588;13.370;2023-02-28T05:47:12;1.10;1.00
9772;DHT22;4925;52.588;13.370;2023-02-28T05:49:41;1.10;1.00
9772;DHT22;4925;52.588;13.370;2023-02-28T05:52:07;1.10;1.00
9772;DHT22;4925;52.588;13.370;2023-02-28T05:54:32;1.10;30.90
9772;DHT22;4925;52.588;13.370;2023-02-28T05:56:58;1.20;7.50
9772;DHT22;4925;52.588;13.370;2023-02-28T05:59:24;1.10;1.00
9772;DHT22;4925;52.588;13.370;2023-02-28T06:01:49;1.00;1.00
9772;DHT22;4925;52.588;13.370;2023-02-28T06:04:17;1.10;1.00
9772;DHT22;4925;52.588;13.370;2023-02-28T06:06:48;1.10;1.00
9772;DHT22;4925;52.588;13.370;2023-02-28T06:09:14;1.10;1.00
9772;DHT22;4925;52.588;13.370;2023-02-28T06:11:40;1.00;1.00
9772;DHT22;4925;52.588;13.370;2023-02-28T06:14:06;1.00;1.00
9772;DHT22;4925;52.588;13.370;2023-02-28T06:16:34;1.00;1.00
9772;DHT22;4925;52.588;13.370;2023-02-28T06:19:02;1.00;1.00
9772;DHT22;4925;52.588;13.370;2023-02-28T06:21:29;1.00;1.00
9772;DHT22;4925;52.588;13.370;2023-02-28T06:23:56;0.90;1.00
9772;DHT22;4925;52.588;13.370;2023-02-28T06:26:22;1.00;1.00
9772;DHT22;4925;52.588;13.370;2023-02-28T06:28:48;1.10;1.00
9772;DHT22;4925;52.588;13.370;2023-02-28T06:31:15;1.10;1.00
9772;DHT22;4925;52.588;13.370;2023-02-28T06:33:42;1.00;1.00
9772;DHT22;4925;52.588;13.370;2023-02-28T06:36:10;1.00;1.00
9772;DHT22;4925;52.588;13.370;2023-02-28T06:38:36;1.20;1.00
9772;DHT22;4925;52.588;13.370;2023-02-28T06:41:03;1.20;1.00
9772;DHT22;4925;52.588;13.370;2023-02-28T06:43:32;1.20;1.00
9772;DHT22;4925;52.588;13.370;2023-02-28T06:45:59;1.30;1.00
9772;DHT22;4925;52.588;13.370;2023-02-28T06:48:26;1.40;1.00
9772;DHT22;4925;52.588;13.370;2023-02-28T06:50:52;1.50;1.00
9772;DHT22;4925;52.588;13.370;2023-02-28T06:53:18;1.50;1.00
9772;DHT22;4925;52.588;13.370;2023-02-28T06:55:44;1.60;1.00
9772;DHT22;4925;52.588;13.370;2023-02-28T06:58:09;1.60;1.00
9772;DHT22;4925;52.588;13.370;2023-02-28T07:00:44;1.60;1.00
9772;DHT22;4925;52.588;13.370;2023-02-28T07:03:12;1.70;1.00
9772;DHT22;4925;52.588;13.370;2023-02-28T07:05:38;1.80;1.00
9772;DHT22;4925;52.588;13.370;2023-02-28T07:08:05;1.80;1.00
9772;DHT22;4925;52.588;13.370;2023-02-28T07:10:32;1.90;1.00
9772;DHT22;4925;52.588;13.370;2023-02-28T07:12:59;2.10;1.00
9772;DHT22;4925;52.588;13.370;2023-02-28T07:15:25;2.00;22.10
9772;DHT22;4925;52.588;13.370;2023-02-28T07:17:50;2.10;23.40
9772;DHT22;4925;52.588;13.370;2023-02-28T07:20:17;2.20;1.00
9772;DHT22;4925;52.588;13.370;2023-02-28T07:22:42;2.30;1.00
9772;DHT22;4925;52.588;13.370;2023-02-28T07:25:08;2.30;1.00
9772;DHT22;4925;52.588;13.370;2023-02-28T07:27:34;2.30;1.00
9772;DHT22;4925;52.588;13.370;2023-02-28T07:30:00;2.40;1.00
9772;DHT22;4925;52.588;13.370;2023-02-28T07:32:27;2.40;1.00
9772;DHT22;4925;52.588;13.370;2023-02-28T07:34:53;2.40;1.00
9772;DHT22;4925;52.588;13.370;2023-02-28T07:37:19;2.40;1.00
9772;DHT22;4925;52.588;13.370;2023-02-28T07:39:45;2.50;1.00
9772;DHT22;4925;52.588;13.370;2023-02-28T07:42:11;2.60;1.00
9772;DHT22;4925;52.588;13.370;2023-02-28T07:44:40;2.70;1.00
9772;DHT22;4925;52.588;13.370;2023-02-28T07:47:10;2.80;1.00
9772;DHT22;4925;52.588;13.370;2023-02-28T07:49:37;2.90;1.00
9772;DHT22;4925;52.588;13.370;2023-02-28T07:52:06;3.00;1.00
9772;DHT22;4925;52.588;13.370;2023-02-28T07:54:32;3.00;1.00
9772;DHT22;4925;52.588;13.370;2023-02-28T07:56:58;3.10;1.00
9772;DHT22;4925;52.588;13.370;2023-02-28T07:59:24;3.30;99.90
9772;DHT22;4925;52.588;13.370;2023-02-28T08:01:50;3.40;99.90
9772;DHT22;4925;52.588;13.370;2023-02-28T08:04:19;3.40;99.90
9772;DHT22;4925;52.588;13.370;2023-02-28T08:06:45;3.60;99.90
9772;DHT22;4925;52.588;13.370;2023-02-28T08:09:11;3.70;99.90
9772;DHT22;4925;52.588;13.370;2023-02-28T08:11:37;3.80;83.50
9772;DHT22;4925;52.588;13.370;2023-02-28T08:14:02;4.00;1.00
9772;DHT22;4925;52.588;13.370;2023-02-28T08:16:28;4.10;1.00
9772;DHT22;4925;52.588;13.370;2023-02-28T08:18:54;4.40;99.90
9772;DHT22;4925;52.588;13.370;2023-02-28T08:21:20;4.30;99.90
9772;DHT22;4925;52.588;13.370;2023-02-28T08:23:48;4.40;1.00
9772;DHT22;4925;52.588;13.370;2023-02-28T08:26:15;4.50;1.00
9772;DHT22;4925;52.588;13.370;2023-02-28T08:28:41;4.60;1.00
9772;DHT22;4925;52.588;13.370;2023-02-28T08:31:09;4.70;99.90
9772;DHT22;4925;52.588;13.370;2023-02-28T08:33:36;4.80;99.90
9772;DHT22;4925;52.588;13.370;2023-02-28T08:36:02;4.90;1.00
9772;DHT22;4925;52.588;13.370;2023-02-28T08:38:28;5.00;1.00
9772;DHT22;4925;52.588;13.370;2023-02-28T08:41:02;5.10;1.00
9772;DHT22;4925;52.588;13.370;2023-02-28T08:43:28;5.20;11.90
9772;DHT22;4925;52.588;13.370;2023-02-28T08:45:55;5.30;1.00
9772;DHT22;4925;52.588;13.370;2023-02-28T08:48:29;5.30;1.00
9772;DHT22;4925;52.588;13.370;2023-02-28T08:51:10;5.20;95.30
9772;DHT22;4925;52.588;13.370;2023-02-28T08:53:37;5.30;99.90
9772;DHT22;4925;52.588;13.370;2023-02-28T08:56:05;5.50;1.00
9772;DHT22;4925;52.588;13.370;2023-02-28T08:58:32;5.40;99.90
9772;DHT22;4925;52.588;13.370;2023-02-28T09:00:59;5.50;99.90
9772;DHT22;4925;52.588;13.370;2023-02-28T09:03:24;5.60;99.90
9772;DHT22;4925;52.588;13.370;2023-02-28T09:06:01;5.80;1.00
9772;DHT22;4925;52.588;13.370;2023-02-28T09:08:29;5.90;1.00
9772;DHT22;4925;52.588;13.370;2023-02-28T09:10:56;5.90;1.00
9772;DHT22;4925;52.588;13.370;2023-02-28T09:13:24;6.00;1.00
9772;DHT22;4925;52.588;13.370;2023-02-28T09:15:50;6.10;2.80
9772;DHT22;4925;52.588;13.370;2023-02-28T09:18:16;6.10;46.00
9772;DHT22;4925;52.588;13.370;2023-02-28T09:20:43;5.90;48.10
9772;DHT22;4925;52.588;13.370;2023-02-28T09:23:11;5.70;47.40
9772;DHT22;4925;52.588;13.370;2023-02-28T09:25:37;5.80;52.40
9772;DHT22;4925;52.588;13.370;2023-02-28T09:28:03;5.70;50.70
9772;DHT22;4925;52.588;13.370;2023-02-28T09:30:30;5.50;51.10
9772;DHT22;4925;52.588;13.370;2023-02-28T09:32:56;5.50;50.10
9772;DHT22;4925;52.588;13.370;2023-02-28T09:35:22;5.70;49.00
9772;DHT22;4925;52.588;13.370;2023-02-28T09:37:50;5.90;48.20
9772;DHT22;4925;52.588;13.370;2023-02-28T09:40:17;5.90;47.60
9772;DHT22;4925;52.588;13.370;2023-02-28T09:42:46;5.70;46.20
9772;DHT22;4925;52.588;13.370;2023-02-28T09:45:32;5.80;46.40
9772;DHT22;4925;52.588;13.370;2023-02-28T09:48:04;6.00;44.50
9772;DHT22;4925;52.588;13.370;2023-02-28T09:50:48;6.10;44.00
9772;DHT22;4925;52.588;13.370;2023-02-28T09:53:35;6.10;45.70
9772;DHT22;4925;52.588;13.370;2023-02-28T09:56:14;6.00;48.80
9772;DHT22;4925;52.588;13.370;2023-02-28T09:58:56;5.90;47.10
9772;DHT22;4925;52.588;13.370;2023-02-28T10:06:58;5.90;46.20
9772;DHT22;4925;52.588;13.370;2023-02-28T10:09:30;5.80;45.60
9772;DHT22;4925;52.588;13.370;2023-02-28T10:12:03;6.00;46.90
9772;DHT22;4925;52.588;13.370;2023-02-28T10:14:32;6.20;47.20
9772;DHT22;4925;52.588;13.370;2023-02-28T10:17:06;6.30;47.20
9772;DHT22;4925;52.588;13.370;2023-02-28T10:22:49;6.50;49.50
9772;DHT22;4925;52.588;13.370;2023-02-28T10:25:22;6.40;46.40
9772;DHT22;4925;52.588;13.370;2023-02-28T10:27:49;6.40;47.70
9772;DHT22;4925;52.588;13.370;2023-02-28T10:30:19;6.40;47.20
9772;DHT22;4925;52.588;13.370;2023-02-28T10:32:51;6.30;50.00
9772;DHT22;4925;52.588;13.370;2023-02-28T10:37:49;6.50;47.70
9772;DHT22;4925;52.588;13.370;2023-02-28T10:43:01;6.50;48.70
9772;DHT22;4925;52.588;13.370;2023-02-28T10:45:33;6.50;50.00
9772;DHT22;4925;52.588;13.370;2023-02-28T10:48:10;6.50;50.40
9772;DHT22;4925;52.588;13.370;2023-02-28T10:50:51;6.50;49.50
9772;DHT22;4925;52.588;13.370;2023-02-28T10:56:14;6.70;50.10
9772;DHT22;4925;52.588;13.370;2023-02-28T11:01:44;7.00;48.70
9772;DHT22;4925;52.588;13.370;2023-02-28T11:06:42;7.40;47.50
9772;DHT22;4925;52.588;13.370;2023-02-28T11:09:25;7.40;47.40
9772;DHT22;4925;52.588;13.370;2023-02-28T11:11:52;7.40;60.20
9772;DHT22;4925;52.588;13.370;2023-02-28T11:14:25;7.50;57.60
9772;DHT22;4925;52.588;13.370;2023-02-28T11:16:51;7.40;58.50
9772;DHT22;4925;52.588;13.370;2023-02-28T11:19:25;7.80;62.40
9772;DHT22;4925;52.588;13.370;2023-02-28T11:21:59;8.00;61.90
9772;DHT22;4925;52.588;13.370;2023-02-28T11:24:35;8.20;60.60
9772;DHT22;4925;52.588;13.370;2023-02-28T11:27:02;8.40;60.00
9772;DHT22;4925;52.588;13.370;2023-02-28T11:29:33;8.50;59.20
9772;DHT22;4925;52.588;13.370;2023-02-28T11:34:42;8.70;58.40
9772;DHT22;4925;52.588;13.370;2023-02-28T11:37:13;8.80;58.30
9772;DHT22;4925;52.588;13.370;2023-02-28T11:39:40;8.90;59.40
9772;DHT22;4925;52.588;13.370;2023-02-28T11:42:31;8.50;55.50
9772;DHT22;4925;52.588;13.370;2023-02-28T11:45:29;8.70;57.80
9772;DHT22;4925;52.588;13.370;2023-02-28T11:48:13;8.80;54.90
9772;DHT22;4925;52.588;13.370;2023-02-28T11:56:33;9.10;53.60
9772;DHT22;4925;52.588;13.370;2023-02-28T12:26:58;9.80;51.10
9772;DHT22;4925;52.588;13.370;2023-02-28T12:29:43;10.00;50.70
9772;DHT22;4925;52.588;13.370;2023-02-28T12:32:20;9.80;49.90
9772;DHT22;4925;52.588;13.370;2023-02-28T12:34:54;9.30;48.90
9772;DHT22;4925;52.588;13.370;2023-02-28T12:40:05;8.80;52.10
9772;DHT22;4925;52.588;13.370;2023-02-28T12:42:39;8.90;51.80
9772;DHT22;4925;52.588;13.370;2023-02-28T12:45:15;9.30;52.70
9772;DHT22;4925;52.588;13.370;2023-02-28T12:47:44;9.60;53.40
9772;DHT22;4925;52.588;13.370;2023-02-28T12:50:12;10.00;51.20
9772;DHT22;4925;52.588;13.370;2023-02-28T12:52:53;10.30;50.50
9772;DHT22;4925;52.588;13.370;2023-02-28T12:55:26;10.70;50.40
9772;DHT22;4925;52.588;13.370;2023-02-28T12:58:14;10.70;48.70
9772;DHT22;4925;52.588;13.370;2023-02-28T13:04:06;10.90;46.10
9772;DHT22;4925;52.588;13.370;2023-02-28T13:09:23;11.90;46.70
9772;DHT22;4925;52.588;13.370;2023-02-28T13:11:53;12.20;44.80
9772;DHT22;4925;52.588;13.370;2023-02-28T13:19:26;12.10;43.10
9772;DHT22;4925;52.588;13.370;2023-02-28T13:21:54;12.20;43.10
9772;DHT22;4925;52.588;13.370;2023-02-28T13:24:49;12.20;43.00
9772;DHT22;4925;52.588;13.370;2023-02-28T13:27:35;12.00;43.70
9772;DHT22;4925;52.588;13.370;2023-02-28T13:33:35;12.60;42.80
9772;DHT22;4925;52.588;13.370;2023-02-28T13:44:10;12.80;40.00
9772;DHT22;4925;52.588;13.370;2023-02-28T13:52:31;13.20;39.00
9772;DHT22;4925;52.588;13.370;2023-02-28T13:57:26;12.90;39.00
9772;DHT22;4925;52.588;13.370;2023-02-28T14:05:27;12.40;37.80
9772;DHT22;4925;52.588;13.370;2023-02-28T14:07:58;12.70;37.70
9772;DHT22;4925;52.588;13.370;2023-02-28T14:10:51;12.30;36.90
9772;DHT22;4925;52.588;13.370;2023-02-28T14:13:45;12.50;38.10
9772;DHT22;4925;52.588;13.370;2023-02-28T14:16:14;12.60;37.70
9772;DHT22;4925;52.588;13.370;2023-02-28T14:18:47;12.60;38.10
9772;DHT22;4925;52.588;13.370;2023-02-28T14:21:47;12.60;37.00
9772;DHT22;4925;52.588;13.370;2023-02-28T14:24:59;12.60;37.20
9772;DHT22;4925;52.588;13.370;2023-02-28T14:27:48;12.60;37.10
9772;DHT22;4925;52.588;13.370;2023-02-28T14:36:21;12.90;37.60
9772;DHT22;4925;52.588;13.370;2023-02-28T14:41:34;12.50;36.50
9772;DHT22;4925;52.588;13.370;2023-02-28T14:44:15;13.00;36.80
9772;DHT22;4925;52.588;13.370;2023-02-28T14:46:43;13.00;36.00
9772;DHT22;4925;52.588;13.370;2023-02-28T14:49:31;12.90;36.40
9772;DHT22;4925;52.588;13.370;2023-02-28T14:52:17;12.90;36.80
9772;DHT22;4925;52.588;13.370;2023-02-28T14:54:44;13.10;36.60
9772;DHT22;4925;52.588;13.370;2023-02-28T14:57:32;13.30;35.80
9772;DHT22;4925;52.588;13.370;2023-02-28T15:00:13;13.70;34.90
9772;DHT22;4925;52.588;13.370;2023-02-28T15:02:40;14.10;34.10
9772;DHT22;4925;52.588;13.370;2023-02-28T15:07:35;13.20;33.80
9772;DHT22;4925;52.588;13.370;2023-02-28T15:12:37;12.90;35.00
9772;DHT22;4925;52.588;13.370;2023-02-28T15:15:03;12.80;34.70
9772;DHT22;4925;52.588;13.370;2023-02-28T15:17:29;12.60;35.20
9772;DHT22;4925;52.588;13.370;2023-02-28T15:19:55;12.50;35.50
9772;DHT22;4925;52.588;13.370;2023-02-28T15:22:28;12.60;35.30
9772;DHT22;4925;52.588;13.370;2023-02-28T15:24:56;12.50;34.50
9772;DHT22;4925;52.588;13.370;2023-02-28T15:27:26;12.50;36.80
9772;DHT22;4925;52.588;13.370;2023-02-28T15:29:59;12.40;35.60
9772;DHT22;4925;52.588;13.370;2023-02-28T15:32:34;12.20;35.10
9772;DHT22;4925;52.588;13.370;2023-02-28T15:37:52;11.90;35.70
9772;DHT22;4925;52.588;13.370;2023-02-28T15:40:26;11.90;35.60
9772;DHT22;4925;52.588;13.370;2023-02-28T15:43:15;11.80;36.20
9772;DHT22;4925;52.588;13.370;2023-02-28T15:46:08;12.00;36.10
9772;DHT22;4925;52.588;13.370;2023-02-28T15:48:52;11.90;36.00
9772;DHT22;4925;52.588;13.370;2023-02-28T15:51:21;11.70;37.70
9772;DHT22;4925;52.588;13.370;2023-02-28T15:54:00;11.60;37.50
9772;DHT22;4925;52.588;13.370;2023-02-28T15:56:28;11.50;37.30
9772;DHT22;4925;52.588;13.370;2023-02-28T15:59:08;11.30;37.70
9772;DHT22;4925;52.588;13.370;2023-02-28T16:01:39;11.00;39.50
9772;DHT22;4925;52.588;13.370;2023-02-28T16:04:16;10.90;45.30
9772;DHT22;4925;52.588;13.370;2023-02-28T16:06:44;10.70;48.60
9772;DHT22;4925;52.588;13.370;2023-02-28T16:09:14;10.70;44.50
9772;DHT22;4925;52.588;13.370;2023-02-28T16:11:48;10.50;43.10
9772;DHT22;4925;52.588;13.370;2023-02-28T16:14:26;10.30;43.00
9772;DHT22;4925;52.588;13.370;2023-02-28T16:17:06;10.20;43.30
9772;DHT22;4925;52.588;13.370;2023-02-28T16:19:34;10.00;43.90
9772;DHT22;4925;52.588;13.370;2023-02-28T16:22:00;9.80;48.10
9772;DHT22;4925;52.588;13.370;2023-02-28T16:24:26;9.60;46.40
9772;DHT22;4925;52.588;13.370;2023-02-28T16:26:53;9.40;46.10
9772;DHT22;4925;52.588;13.370;2023-02-28T16:29:29;9.30;46.80
9772;DHT22;4925;52.588;13.370;2023-02-28T16:31:56;9.20;47.40
9772;DHT22;4925;52.588;13.370;2023-02-28T16:34:22;9.00;47.50
9772;DHT22;4925;52.588;13.370;2023-02-28T16:36:48;8.80;48.20
9772;DHT22;4925;52.588;13.370;2023-02-28T16:39:14;8.70;48.90
9772;DHT22;4925;52.588;13.370;2023-02-28T16:41:43;8.50;48.60
9772;DHT22;4925;52.588;13.370;2023-02-28T16:44:13;8.30;49.20
9772;DHT22;4925;52.588;13.370;2023-02-28T16:46:39;8.20;49.90
9772;DHT22;4925;52.588;13.370;2023-02-28T16:49:08;8.10;50.00
9772;DHT22;4925;52.588;13.370;2023-02-28T16:51:35;8.10;50.30
9772;DHT22;4925;52.588;13.370;2023-02-28T16:54:01;8.00;51.40
9772;DHT22;4925;52.588;13.370;2023-02-28T16:56:27;8.00;57.90
9772;DHT22;4925;52.588;13.370;2023-02-28T16:58:55;7.90;55.30
9772;DHT22;4925;52.588;13.370;2023-02-28T17:01:23;7.80;54.00
9772;DHT22;4925;52.588;13.370;2023-02-28T17:03:49;7.70;53.60
9772;DHT22;4925;52.588;13.370;2023-02-28T17:06:24;7.60;53.40
9772;DHT22;4925;52.588;13.370;2023-02-28T17:08:51;7.60;54.30
9772;DHT22;4925;52.588;13.370;2023-02-28T17:11:18;7.50;55.90
9772;DHT22;4925;52.588;13.370;2023-02-28T17:13:43;7.50;57.70
9772;DHT22;4925;52.588;13.370;2023-02-28T17:16:26;7.40;57.40
9772;DHT22;4925;52.588;13.370;2023-02-28T17:18:54;7.30;57.60
9772;DHT22;4925;52.588;13.370;2023-02-28T17:21:21;7.30;58.20
9772;DHT22;4925;52.588;13.370;2023-02-28T17:23:47;7.20;58.90
9772;DHT22;4925;52.588;13.370;2023-02-28T17:26:18;7.20;59.80
9772;DHT22;4925;52.588;13.370;2023-02-28T17:28:48;7.10;61.10
9772;DHT22;4925;52.588;13.370;2023-02-28T17:31:14;7.00;62.00
9772;DHT22;4925;52.588;13.370;2023-02-28T17:33:40;6.90;63.30
9772;DHT22;4925;52.588;13.370;2023-02-28T17:36:09;6.90;65.00
9772;DHT22;4925;52.588;13.370;2023-02-28T17:38:35;6.80;66.20
9772;DHT22;4925;52.588;13.370;2023-02-28T17:41:01;6.80;67.60
9772;DHT22;4925;52.588;13.370;2023-02-28T17:43:27;6.70;69.00
9772;DHT22;4925;52.588;13.370;2023-02-28T17:45:53;6.60;70.20
9772;DHT22;4925;52.588;13.370;2023-02-28T17:48:19;6.50;71.60
9772;DHT22;4925;52.588;13.370;2023-02-28T17:50:45;6.50;73.00
9772;DHT22;4925;52.588;13.370;2023-02-28T17:53:11;6.40;74.00
9772;DHT22;4925;52.588;13.370;2023-02-28T17:55:36;6.30;75.00
9772;DHT22;4925;52.588;13.370;2023-02-28T17:58:03;6.20;76.80
9772;DHT22;4925;52.588;13.370;2023-02-28T18:00:29;6.20;78.30
9772;DHT22;4925;52.588;13.370;2023-02-28T18:02:55;6.10;79.60
9772;DHT22;4925;52.588;13.370;2023-02-28T18:05:21;6.10;81.00
9772;DHT22;4925;52.588;13.370;2023-02-28T18:07:46;6.00;82.50
9772;DHT22;4925;52.588;13.370;2023-02-28T18:10:17;6.00;83.60
9772;DHT22;4925;52.588;13.370;2023-02-28T18:12:49;5.90;84.30
9772;DHT22;4925;52.588;13.370;2023-02-28T18:15:17;5.80;84.80
9772;DHT22;4925;52.588;13.370;2023-02-28T18:17:45;5.80;86.10
9772;DHT22;4925;52.588;13.370;2023-02-28T18:20:11;5.60;87.20
9772;DHT22;4925;52.588;13.370;2023-02-28T18:22:38;5.60;89.30
9772;DHT22;4925;52.588;13.370;2023-02-28T18:25:05;5.50;89.50
9772;DHT22;4925;52.588;13.370;2023-02-28T18:27:33;5.50;90.10
9772;DHT22;4925;52.588;13.370;2023-02-28T18:29:58;5.40;90.40
9772;DHT22;4925;52.588;13.370;2023-02-28T18:32:24;5.40;90.70
9772;DHT22;4925;52.588;13.370;2023-02-28T18:34:50;5.30;90.90
9772;DHT22;4925;52.588;13.370;2023-02-28T18:37:16;5.30;91.10
9772;DHT22;4925;52.588;13.370;2023-02-28T18:39:43;5.20;91.30
9772;DHT22;4925;52.588;13.370;2023-02-28T18:42:08;5.20;91.70
9772;DHT22;4925;52.588;13.370;2023-02-28T18:44:36;5.10;91.90
9772;DHT22;4925;52.588;13.370;2023-02-28T18:47:02;5.10;92.10
9772;DHT22;4925;52.588;13.370;2023-02-28T18:49:27;5.00;92.40
9772;DHT22;4925;52.588;13.370;2023-02-28T18:51:53;4.90;93.10